Time;durP1;ratioP1;P1;durP2;ratioP2;P2;SDS_P1;SDS_P2;PMS_P1;PMS_P2;Temp;Humidity;BMP_temperature;BMP_pressure;BME280_temperature;BME280_humidity;BME280_pressure;Samples;Min_cycle;Max_cycle;Signal;HPM_P1;HPM_P2
2023/10/15 00:01:53;;;;;;;21.50;13.00;;;;;;;;;;4992463;28;20127;-70
2023/10/15 00:04:22;;;;;;;23.00;12.50;;;;;;;;;;4992342;28;20038;-71
2023/10/15 00:06:49;;;;;;;20.20;14.40;;;;;;;;;;4992284;28;20065;-71
2023/10/15 00:09:14;;;;;;;21.23;13.80;;;;;;;;;;4992286;28;20037;-71
2023/10/15 00:11:41;;;;;;;21.83;14.80;;;;;;;;;;4992429;28;20038;-71
2023/10/15 00:14:06;;;;;;;19.30;12.50;;;;;;;;;;4992244;28;20396;-71
2023/10/15 00:16:33;;;;;;;17.38;12.55;;;;;;;;;;4992125;28;20038;-71
2023/10/15 00:19:05;;;;;;;19.63;11.95;;;;;;;;;;4992380;28;20023;-71
2023/10/15 00:21:31;;;;;;;19.42;11.85;;;;;;;;;;4991988;28;20034;-71
2023/10/15 00:23:56;;;;;;;18.92;11.75;;;;;;;;;;4992142;28;20172;-71
2023/10/15 00:26:22;;;;;;;18.33;11.65;;;;;;;;;;4992192;28;20069;-71
2023/10/15 00:28:50;;;;;;;16.83;11.35;;;;;;;;;;4991933;28;20030;-71
2023/10/15 00:31:17;;;;;;;21.45;13.05;;;;;;;;;;4992454;28;20130;-70
2023/10/15 00:33:48;;;;;;;19.58;12.65;;;;;;;;;;4990605;28;20081;-70
2023/10/15 00:36:17;;;;;;;20.55;12.73;;;;;;;;;;4990686;28;20034;-71
2023/10/15 00:38:44;;;;;;;17.63;12.15;;;;;;;;;;4990801;28;20092;-71
2023/10/15 00:41:13;;;;;;;24.80;12.82;;;;;;;;;;4990879;28;20030;-71
2023/10/15 00:43:54;;;;;;;28.27;13.23;;;;;;;;;;4992337;28;20030;-71
2023/10/15 00:46:27;;;;;;;20.92;11.32;;;;;;;;;;4990676;28;20035;-71
2023/10/15 00:48:57;;;;;;;22.85;13.13;;;;;;;;;;4993353;28;20034;-71
2023/10/15 00:51:24;;;;;;;20.60;11.63;;;;;;;;;;4994430;28;20030;-70
2023/10/15 00:53:58;;;;;;;20.65;11.70;;;;;;;;;;4994255;28;20077;-70
2023/10/15 00:56:38;;;;;;;20.67;12.82;;;;;;;;;;4994233;28;20121;-70
2023/10/15 00:59:18;;;;;;;19.58;13.00;;;;;;;;;;4995659;28;20093;-71
2023/10/15 01:02:03;;;;;;;19.40;12.65;;;;;;;;;;4995633;28;20121;-70
2023/10/15 01:04:35;;;;;;;20.30;12.82;;;;;;;;;;4994222;28;20069;-70
2023/10/15 01:10:00;;;;;;;20.75;13.00;;;;;;;;;;4990692;28;20109;-70
2023/10/15 01:12:32;;;;;;;28.75;17.33;;;;;;;;;;4995242;28;20485;-70
2023/10/15 01:14:59;;;;;;;25.38;14.27;;;;;;;;;;4995289;28;20041;-72
2023/10/15 01:17:26;;;;;;;26.30;14.32;;;;;;;;;;4993830;28;20029;-71
2023/10/15 01:19:52;;;;;;;29.70;14.80;;;;;;;;;;4995186;28;20046;-71
2023/10/15 01:22:21;;;;;;;20.30;13.90;;;;;;;;;;4995446;28;20105;-70
2023/10/15 01:24:53;;;;;;;21.58;14.07;;;;;;;;;;4998232;28;20068;-70
2023/10/15 01:27:28;;;;;;;22.35;13.95;;;;;;;;;;4993959;28;20034;-71
2023/10/15 01:29:55;;;;;;;24.38;14.25;;;;;;;;;;4993882;28;20504;-71
2023/10/15 01:32:22;;;;;;;21.80;13.65;;;;;;;;;;4993412;28;20117;-71
2023/10/15 01:34:50;;;;;;;21.40;14.20;;;;;;;;;;4994775;28;20034;-71
2023/10/15 01:39:48;;;;;;;20.20;13.38;;;;;;;;;;4993382;28;20038;-71
2023/10/15 01:47:45;;;;;;;20.95;13.20;;;;;;;;;;4978619;28;20129;-70
2023/10/15 01:50:15;;;;;;;20.40;13.60;;;;;;;;;;4994643;28;20517;-70
2023/10/15 01:52:44;;;;;;;27.02;13.70;;;;;;;;;;4993346;28;20073;-70
2023/10/15 01:55:13;;;;;;;23.65;14.13;;;;;;;;;;4993118;28;20084;-71
2023/10/15 01:57:39;;;;;;;25.27;14.43;;;;;;;;;;4985916;28;20065;-71
2023/10/15 02:00:13;;;;;;;24.02;14.15;;;;;;;;;;4988603;28;20122;-71
2023/10/15 02:02:48;;;;;;;23.45;14.07;;;;;;;;;;4984930;28;20441;-71
2023/10/15 02:05:29;;;;;;;19.58;12.82;;;;;;;;;;4988479;28;20045;-71
2023/10/15 02:07:58;;;;;;;23.45;13.57;;;;;;;;;;5001331;28;20099;-71
2023/10/15 02:10:24;;;;;;;22.00;13.25;;;;;;;;;;4995106;28;20053;-71
2023/10/15 02:13:00;;;;;;;20.92;14.07;;;;;;;;;;4985770;28;20038;-71
2023/10/15 02:15:31;;;;;;;24.33;14.32;;;;;;;;;;4987813;28;20523;-71
2023/10/15 02:17:59;;;;;;;22.92;14.38;;;;;;;;;;4988620;28;20038;-71
2023/10/15 02:20:41;;;;;;;23.27;14.10;;;;;;;;;;5005047;28;20124;-71
2023/10/15 02:23:06;;;;;;;25.10;13.85;;;;;;;;;;4988469;28;20042;-71
2023/10/15 02:25:36;;;;;;;21.65;13.30;;;;;;;;;;4973391;28;20034;-71
2023/10/15 02:28:02;;;;;;;21.20;13.80;;;;;;;;;;4990418;28;20054;-71
2023/10/15 02:30:32;;;;;;;22.02;14.25;;;;;;;;;;4991747;28;20061;-71
2023/10/15 02:33:01;;;;;;;21.35;13.52;;;;;;;;;;4992343;28;20046;-71
2023/10/15 02:35:39;;;;;;;20.30;13.52;;;;;;;;;;4992050;28;20029;-71
2023/10/15 02:38:09;;;;;;;25.20;14.02;;;;;;;;;;4992352;28;20496;-71
2023/10/15 02:40:36;;;;;;;22.08;13.95;;;;;;;;;;4992105;28;20154;-71
2023/10/15 02:43:06;;;;;;;25.27;15.07;;;;;;;;;;4992015;28;20118;-71
2023/10/15 02:45:36;;;;;;;24.15;14.98;;;;;;;;;;4992091;28;20125;-71
2023/10/15 02:48:10;;;;;;;27.50;15.70;;;;;;;;;;4993559;28;20038;-71
2023/10/15 02:50:36;;;;;;;21.98;14.27;;;;;;;;;;4993529;28;20118;-71
2023/10/15 02:53:05;;;;;;;21.73;12.80;;;;;;;;;;4992291;28;20121;-71
2023/10/15 02:55:47;;;;;;;22.88;14.73;;;;;;;;;;4994578;28;20038;-71
2023/10/15 02:58:16;;;;;;;26.73;14.18;;;;;;;;;;4993358;28;20034;-70
2023/10/15 03:00:42;;;;;;;27.23;15.40;;;;;;;;;;4991570;28;20133;-71
2023/10/15 03:03:14;;;;;;;23.70;15.70;;;;;;;;;;4991649;28;20126;-71
2023/10/15 03:05:40;;;;;;;18.02;11.93;;;;;;;;;;4991331;28;20062;-70
2023/10/15 03:08:06;;;;;;;18.77;12.60;;;;;;;;;;4991688;28;20083;-70
2023/10/15 03:13:33;;;;;;;17.25;11.27;;;;;;;;;;4982055;28;20453;-72
2023/10/15 03:16:07;;;;;;;16.67;11.48;;;;;;;;;;4980487;28;20035;-71
2023/10/15 03:18:34;;;;;;;20.25;11.20;;;;;;;;;;4987561;28;20038;-72
2023/10/15 03:21:17;;;;;;;16.45;11.23;;;;;;;;;;4988987;28;20026;-72
2023/10/15 03:23:44;;;;;;;16.42;10.70;;;;;;;;;;4987543;28;20038;-71
2023/10/15 03:26:17;;;;;;;16.65;10.43;;;;;;;;;;4988494;28;20026;-71
2023/10/15 03:28:45;;;;;;;18.35;9.32;;;;;;;;;;4986688;28;20129;-72
2023/10/15 03:31:15;;;;;;;20.42;9.38;;;;;;;;;;4987362;28;20061;-70
2023/10/15 03:33:58;;;;;;;19.17;9.32;;;;;;;;;;4995740;28;20034;-71
2023/10/15 03:36:24;;;;;;;14.70;8.55;;;;;;;;;;4992681;28;20081;-71
2023/10/15 03:38:50;;;;;;;13.65;7.90;;;;;;;;;;4986602;28;20042;-71
2023/10/15 03:41:22;;;;;;;16.70;8.80;;;;;;;;;;4987409;28;20404;-71
2023/10/15 03:43:48;;;;;;;13.63;8.40;;;;;;;;;;4988520;28;20038;-71
2023/10/15 03:46:19;;;;;;;14.80;8.50;;;;;;;;;;4987958;28;20018;-72
2023/10/15 03:48:48;;;;;;;13.57;8.50;;;;;;;;;;4994616;28;20051;-70
2023/10/15 03:51:20;;;;;;;13.38;8.23;;;;;;;;;;5006924;28;20373;-72
2023/10/15 03:53:49;;;;;;;14.05;7.25;;;;;;;;;;5000603;28;20050;-71
2023/10/15 03:56:19;;;;;;;12.43;6.75;;;;;;;;;;4989511;28;20037;-71
2023/10/15 03:58:45;;;;;;;14.80;7.40;;;;;;;;;;4991966;28;20042;-70
2023/10/15 04:01:14;;;;;;;11.75;7.15;;;;;;;;;;4991880;28;20034;-70
2023/10/15 04:03:43;;;;;;;14.07;8.10;;;;;;;;;;4992349;28;20080;-70
2023/10/15 04:06:10;;;;;;;17.70;7.82;;;;;;;;;;4991317;28;20030;-70
2023/10/15 04:08:39;;;;;;;15.50;7.75;;;;;;;;;;4991982;28;20129;-72
2023/10/15 04:11:08;;;;;;;18.55;7.65;;;;;;;;;;4991796;28;20023;-72
2023/10/15 04:13:35;;;;;;;12.00;7.30;;;;;;;;;;4983412;28;20047;-72
2023/10/15 04:16:01;;;;;;;14.68;7.15;;;;;;;;;;4972203;28;20377;-71
2023/10/15 04:18:26;;;;;;;15.23;7.63;;;;;;;;;;4968931;28;20031;-71
2023/10/15 04:20:54;;;;;;;18.52;9.27;;;;;;;;;;4972034;28;20034;-70
2023/10/15 04:23:33;;;;;;;13.77;8.23;;;;;;;;;;4975417;28;20392;-71
2023/10/15 04:26:11;;;;;;;14.70;7.93;;;;;;;;;;4976579;28;20042;-70
2023/10/15 04:28:38;;;;;;;12.90;7.68;;;;;;;;;;4976067;28;20049;-70
2023/10/15 04:31:21;;;;;;;13.70;9.15;;;;;;;;;;4976052;28;20030;-70
2023/10/15 04:33:50;;;;;;;12.57;8.55;;;;;;;;;;4976816;28;20034;-72
2023/10/15 04:36:17;;;;;;;15.05;9.00;;;;;;;;;;4976539;28;20039;-71
2023/10/15 04:38:42;;;;;;;22.35;9.27;;;;;;;;;;4976067;28;20038;-70
2023/10/15 04:41:10;;;;;;;20.80;9.77;;;;;;;;;;4976535;28;20023;-71
2023/10/15 04:43:45;;;;;;;15.52;10.35;;;;;;;;;;4976112;28;20045;-70
2023/10/15 04:46:25;;;;;;;15.65;11.15;;;;;;;;;;4976409;28;20441;-71
2023/10/15 04:48:52;;;;;;;19.75;11.65;;;;;;;;;;4976108;28;20485;-71
2023/10/15 04:51:18;;;;;;;24.63;13.25;;;;;;;;;;4976162;28;20492;-70
2023/10/15 04:53:50;;;;;;;20.17;12.07;;;;;;;;;;4975898;28;20035;-72
2023/10/15 04:56:16;;;;;;;22.85;12.60;;;;;;;;;;4975944;28;20035;-71
2023/10/15 04:58:42;;;;;;;20.10;12.30;;;;;;;;;;4975814;28;20088;-70
2023/10/15 05:01:09;;;;;;;23.15;13.38;;;;;;;;;;4969491;28;20039;-70
2023/10/15 05:03:38;;;;;;;23.85;12.93;;;;;;;;;;4971061;28;20031;-71
2023/10/15 05:06:10;;;;;;;25.77;12.82;;;;;;;;;;4972641;28;20031;-71
2023/10/15 05:08:40;;;;;;;20.00;11.13;;;;;;;;;;4975718;28;20093;-71
2023/10/15 05:11:08;;;;;;;23.23;11.75;;;;;;;;;;4975559;28;20037;-71
2023/10/15 05:13:34;;;;;;;22.52;12.25;;;;;;;;;;4975396;28;20089;-71
2023/10/15 05:16:00;;;;;;;21.90;11.35;;;;;;;;;;4975437;28;20042;-71
2023/10/15 05:18:29;;;;;;;22.42;10.88;;;;;;;;;;4975595;28;20031;-70
2023/10/15 05:20:55;;;;;;;22.67;11.88;;;;;;;;;;4975180;28;20135;-70
2023/10/15 05:23:22;;;;;;;16.98;10.43;;;;;;;;;;4975322;28;20381;-71
2023/10/15 05:25:53;;;;;;;18.88;10.50;;;;;;;;;;4975166;28;20101;-72
2023/10/15 05:28:18;;;;;;;20.80;11.48;;;;;;;;;;4975331;28;20478;-71
2023/10/15 05:30:44;;;;;;;21.55;11.63;;;;;;;;;;4975226;28;20061;-70
2023/10/15 05:33:10;;;;;;;16.00;10.88;;;;;;;;;;4974679;28;20427;-71
2023/10/15 05:35:37;;;;;;;17.85;11.35;;;;;;;;;;4974915;28;20118;-72
2023/10/15 05:38:08;;;;;;;20.55;11.13;;;;;;;;;;4973752;28;20162;-71
2023/10/15 05:40:35;;;;;;;17.30;11.07;;;;;;;;;;4975021;28;20042;-73
2023/10/15 05:43:01;;;;;;;19.80;10.27;;;;;;;;;;4973621;28;20497;-73
2023/10/15 05:45:27;;;;;;;19.30;10.35;;;;;;;;;;4967073;28;20041;-73
2023/10/15 05:47:52;;;;;;;16.50;10.52;;;;;;;;;;4975058;28;20031;-73
2023/10/15 05:50:18;;;;;;;16.55;10.43;;;;;;;;;;4974796;28;20409;-74
2023/10/15 05:52:45;;;;;;;17.45;9.60;;;;;;;;;;4973668;28;20031;-72
2023/10/15 05:55:11;;;;;;;20.90;9.77;;;;;;;;;;4974934;28;20046;-74
2023/10/15 05:57:37;;;;;;;16.45;9.18;;;;;;;;;;4975174;28;20035;-73
2023/10/15 06:00:17;;;;;;;12.63;8.85;;;;;;;;;;4974506;28;20031;-72
2023/10/15 06:02:48;;;;;;;18.55;8.70;;;;;;;;;;4979971;28;20037;-71
2023/10/15 06:05:15;;;;;;;11.57;7.78;;;;;;;;;;4973151;28;20062;-72
2023/10/15 06:07:41;;;;;;;14.73;8.45;;;;;;;;;;4973785;28;20376;-73
2023/10/15 06:10:08;;;;;;;12.77;8.35;;;;;;;;;;4973523;28;20073;-72
2023/10/15 06:12:34;;;;;;;12.55;8.40;;;;;;;;;;4968090;28;20081;-72
2023/10/15 06:15:00;;;;;;;18.15;9.13;;;;;;;;;;4974046;28;20053;-73
2023/10/15 06:17:26;;;;;;;14.65;8.93;;;;;;;;;;4974044;28;20015;-72
2023/10/15 06:19:52;;;;;;;11.68;7.70;;;;;;;;;;4973627;28;20129;-71
2023/10/15 06:22:17;;;;;;;18.52;8.90;;;;;;;;;;4973801;28;20101;-73
2023/10/15 06:24:46;;;;;;;15.02;7.65;;;;;;;;;;4972681;28;20038;-72
2023/10/15 06:27:15;;;;;;;12.30;7.47;;;;;;;;;;4973826;28;20066;-73
2023/10/15 06:29:41;;;;;;;13.38;8.25;;;;;;;;;;4973511;28;20243;-72
2023/10/15 06:32:06;;;;;;;13.57;8.02;;;;;;;;;;4973723;28;20027;-72
2023/10/15 06:34:33;;;;;;;14.30;8.30;;;;;;;;;;4973504;28;20042;-72
2023/10/15 06:36:58;;;;;;;16.48;8.73;;;;;;;;;;4973354;28;20031;-71
2023/10/15 06:39:24;;;;;;;15.85;9.05;;;;;;;;;;4973310;28;20066;-71
2023/10/15 06:41:50;;;;;;;16.98;9.45;;;;;;;;;;4973128;28;20057;-73
2023/10/15 06:44:19;;;;;;;13.48;8.70;;;;;;;;;;4971797;28;20026;-72
2023/10/15 06:46:45;;;;;;;15.05;8.77;;;;;;;;;;4972854;28;20077;-72
2023/10/15 06:49:10;;;;;;;16.20;9.45;;;;;;;;;;4973394;28;20026;-69
2023/10/15 06:51:39;;;;;;;18.52;11.93;;;;;;;;;;4973327;28;20027;-72
2023/10/15 06:54:05;;;;;;;17.15;9.40;;;;;;;;;;4973269;28;20035;-70
2023/10/15 06:56:31;;;;;;;17.40;9.20;;;;;;;;;;4973233;28;20030;-70
2023/10/15 06:58:57;;;;;;;17.88;10.10;;;;;;;;;;4973653;28;20082;-70
2023/10/15 07:01:26;;;;;;;17.40;10.00;;;;;;;;;;4973522;28;20030;-71
2023/10/15 07:03:52;;;;;;;26.42;13.65;;;;;;;;;;4973410;28;20035;-71
2023/10/15 07:06:19;;;;;;;16.23;10.48;;;;;;;;;;4973352;28;20503;-72
2023/10/15 07:08:45;;;;;;;21.17;11.80;;;;;;;;;;4973121;28;20389;-72
2023/10/15 07:11:10;;;;;;;22.35;11.80;;;;;;;;;;4973151;28;20027;-70
2023/10/15 07:13:36;;;;;;;25.52;10.98;;;;;;;;;;4973273;28;20064;-72
2023/10/15 07:16:02;;;;;;;16.52;9.93;;;;;;;;;;4973269;28;20531;-71
2023/10/15 07:18:28;;;;;;;21.00;9.98;;;;;;;;;;4973842;28;20516;-70
2023/10/15 07:20:55;;;;;;;19.92;11.63;;;;;;;;;;4973027;28;20030;-72
2023/10/15 07:23:21;;;;;;;17.80;10.15;;;;;;;;;;4972534;28;20039;-71
2023/10/15 07:25:46;;;;;;;22.38;10.10;;;;;;;;;;4973109;28;20033;-71
2023/10/15 07:28:12;;;;;;;24.42;10.50;;;;;;;;;;4972864;28;20121;-71
2023/10/15 07:30:38;;;;;;;19.58;10.65;;;;;;;;;;4972686;28;20046;-71
2023/10/15 07:33:04;;;;;;;20.13;10.88;;;;;;;;;;4972853;28;20046;-72
2023/10/15 07:35:30;;;;;;;19.52;11.43;;;;;;;;;;4972771;28;20030;-72
2023/10/15 07:37:56;;;;;;;19.85;9.85;;;;;;;;;;4972922;28;20442;-70
2023/10/15 07:40:25;;;;;;;22.00;11.50;;;;;;;;;;4972940;28;20077;-70
2023/10/15 07:43:00;;;;;;;20.85;9.95;;;;;;;;;;4972531;28;20107;-72
2023/10/15 07:45:27;;;;;;;21.83;11.15;;;;;;;;;;4972256;28;20218;-70
2023/10/15 07:47:54;;;;;;;22.25;11.50;;;;;;;;;;4972570;28;20516;-71
2023/10/15 07:50:23;;;;;;;24.30;11.13;;;;;;;;;;4972764;28;20049;-70
2023/10/15 07:52:50;;;;;;;27.23;11.18;;;;;;;;;;4972434;28;20037;-72
2023/10/15 07:55:17;;;;;;;21.88;10.77;;;;;;;;;;4972239;28;20531;-71
2023/10/15 07:57:43;;;;;;;15.48;10.05;;;;;;;;;;4972046;28;20099;-70
2023/10/15 08:00:15;;;;;;;19.27;10.25;;;;;;;;;;4971967;28;20127;-71
2023/10/15 08:02:42;;;;;;;18.55;10.27;;;;;;;;;;4972094;28;20035;-71
2023/10/15 08:05:11;;;;;;;18.08;10.55;;;;;;;;;;4971787;28;20101;-72
2023/10/15 08:07:38;;;;;;;22.48;11.43;;;;;;;;;;4972355;28;20039;-71
2023/10/15 08:10:04;;;;;;;20.88;11.30;;;;;;;;;;4972650;28;20027;-71
2023/10/15 08:12:32;;;;;;;13.23;9.50;;;;;;;;;;4972141;28;20098;-71
2023/10/15 08:14:57;;;;;;;19.42;11.43;;;;;;;;;;4971509;28;20023;-71
2023/10/15 08:17:24;;;;;;;17.13;11.07;;;;;;;;;;4970669;28;20035;-72
2023/10/15 08:19:51;;;;;;;18.63;9.80;;;;;;;;;;4972591;28;20401;-71
2023/10/15 08:22:17;;;;;;;18.95;10.30;;;;;;;;;;4972137;28;20508;-71
2023/10/15 08:24:42;;;;;;;20.05;10.70;;;;;;;;;;4986851;28;20030;-72
2023/10/15 08:27:08;;;;;;;16.52;10.93;;;;;;;;;;4972355;28;20493;-72
2023/10/15 08:29:33;;;;;;;16.65;9.82;;;;;;;;;;4972355;28;20023;-71
2023/10/15 08:31:59;;;;;;;16.58;10.85;;;;;;;;;;4972216;28;20073;-71
2023/10/15 08:34:26;;;;;;;15.32;10.52;;;;;;;;;;4972057;28;20038;-71
2023/10/15 08:36:51;;;;;;;15.57;10.55;;;;;;;;;;4971609;28;20046;-72
2023/10/15 08:39:17;;;;;;;15.02;10.00;;;;;;;;;;4972036;28;20026;-71
2023/10/15 08:41:44;;;;;;;15.75;10.55;;;;;;;;;;4986866;28;20184;-72
2023/10/15 08:44:18;;;;;;;14.15;9.57;;;;;;;;;;4971515;28;20031;-72
2023/10/15 08:46:47;;;;;;;19.75;9.85;;;;;;;;;;4971634;28;20153;-71
2023/10/15 08:49:15;;;;;;;17.63;9.90;;;;;;;;;;4972113;28;20023;-72
2023/10/15 08:51:43;;;;;;;20.30;10.32;;;;;;;;;;4971765;28;20342;-72
2023/10/15 08:54:12;;;;;;;16.67;9.77;;;;;;;;;;4971864;28;20432;-73
2023/10/15 08:56:38;;;;;;;13.18;8.38;;;;;;;;;;4971166;28;20071;-72
2023/10/15 08:59:09;;;;;;;12.60;6.72;;;;;;;;;;4970319;28;20141;-72
2023/10/15 09:01:42;;;;;;;10.27;7.07;;;;;;;;;;4970622;28;20489;-71
2023/10/15 09:04:09;;;;;;;14.30;8.05;;;;;;;;;;4971380;28;20540;-71
2023/10/15 09:06:36;;;;;;;13.00;7.88;;;;;;;;;;4971730;28;20118;-72
2023/10/15 09:09:02;;;;;;;13.73;7.80;;;;;;;;;;4973176;28;20023;-71
2023/10/15 09:11:28;;;;;;;13.73;8.50;;;;;;;;;;4974883;28;20083;-73
2023/10/15 09:13:54;;;;;;;17.35;8.98;;;;;;;;;;4976677;28;20034;-70
2023/10/15 09:16:21;;;;;;;16.60;8.77;;;;;;;;;;4974599;28;20060;-72
2023/10/15 09:18:47;;;;;;;12.20;7.93;;;;;;;;;;4974881;28;20110;-71
2023/10/15 09:21:23;;;;;;;12.73;7.47;;;;;;;;;;4973446;28;20046;-72
2023/10/15 09:23:50;;;;;;;10.02;7.43;;;;;;;;;;4974867;28;20047;-71
2023/10/15 09:26:17;;;;;;;14.40;8.02;;;;;;;;;;4974717;28;20097;-71
2023/10/15 09:28:44;;;;;;;11.80;7.15;;;;;;;;;;4975089;28;20035;-71
2023/10/15 09:31:11;;;;;;;11.82;7.15;;;;;;;;;;4975847;28;20038;-72
2023/10/15 09:33:38;;;;;;;10.93;6.97;;;;;;;;;;4975054;28;20071;-73
2023/10/15 09:36:05;;;;;;;16.75;7.82;;;;;;;;;;4974653;28;20405;-70
2023/10/15 09:38:33;;;;;;;9.98;6.60;;;;;;;;;;4974704;28;20041;-71
2023/10/15 09:41:00;;;;;;;14.80;6.68;;;;;;;;;;4973872;28;20035;-72
2023/10/15 09:43:27;;;;;;;11.55;6.40;;;;;;;;;;4974548;28;20035;-72
2023/10/15 09:45:56;;;;;;;12.68;6.97;;;;;;;;;;4974372;28;20027;-71
2023/10/15 09:48:26;;;;;;;9.75;6.97;;;;;;;;;;4975065;28;20656;-71
2023/10/15 09:50:56;;;;;;;10.05;6.07;;;;;;;;;;4973572;28;20433;-71
2023/10/15 09:53:34;;;;;;;11.20;6.53;;;;;;;;;;4974329;28;20209;-71
2023/10/15 09:56:07;;;;;;;11.55;6.10;;;;;;;;;;4974336;28;20489;-70
2023/10/15 09:58:34;;;;;;;11.15;5.30;;;;;;;;;;4974558;28;20038;-71
2023/10/15 10:01:25;;;;;;;9.30;5.47;;;;;;;;;;4973612;28;20058;-71
2023/10/15 10:04:16;;;;;;;10.00;5.05;;;;;;;;;;4974324;28;20476;-71
2023/10/15 10:06:48;;;;;;;14.65;5.90;;;;;;;;;;4973974;28;20062;-71
2023/10/15 10:09:54;;;;;;;12.32;4.88;;;;;;;;;;4973230;28;20121;-71
2023/10/15 10:12:42;;;;;;;10.77;5.75;;;;;;;;;;4953373;28;20054;-71
2023/10/15 10:15:15;;;;;;;13.35;5.47;;;;;;;;;;4966882;28;20068;-72
2023/10/15 10:17:42;;;;;;;10.45;5.43;;;;;;;;;;4973244;28;20049;-72
2023/10/15 10:20:11;;;;;;;11.13;5.80;;;;;;;;;;4973613;28;20089;-70
2023/10/15 10:22:39;;;;;;;12.18;4.93;;;;;;;;;;4972526;28;20061;-71
2023/10/15 10:25:07;;;;;;;9.65;5.35;;;;;;;;;;4974083;28;20089;-71
2023/10/15 10:27:43;;;;;;;11.00;6.95;;;;;;;;;;4973874;28;20485;-72
2023/10/15 10:30:28;;;;;;;23.63;9.77;;;;;;;;;;4972563;28;20568;-70
2023/10/15 10:32:58;;;;;;;24.15;8.98;;;;;;;;;;4973478;28;20035;-71
2023/10/15 10:35:26;;;;;;;15.07;9.23;;;;;;;;;;4973647;28;20026;-72
2023/10/15 10:38:12;;;;;;;15.90;5.80;;;;;;;;;;4973930;28;20490;-71
2023/10/15 10:40:48;;;;;;;10.63;5.55;;;;;;;;;;4974773;28;20061;-72
2023/10/15 10:43:16;;;;;;;9.80;6.07;;;;;;;;;;4974566;28;20231;-72
2023/10/15 10:45:56;;;;;;;12.32;6.35;;;;;;;;;;4974402;28;20505;-72
2023/10/15 10:48:23;;;;;;;14.43;6.25;;;;;;;;;;4973466;28;20039;-72
2023/10/15 10:51:11;;;;;;;13.90;6.32;;;;;;;;;;4974834;28;20023;-70
2023/10/15 10:53:39;;;;;;;12.23;6.25;;;;;;;;;;4973633;28;20070;-71
2023/10/15 10:56:06;;;;;;;13.10;6.40;;;;;;;;;;4973399;28;20038;-72
2023/10/15 10:58:34;;;;;;;9.35;5.57;;;;;;;;;;4973639;28;20039;-72
2023/10/15 11:01:00;;;;;;;9.50;5.93;;;;;;;;;;4973702;28;20394;-72
2023/10/15 11:03:26;;;;;;;12.55;6.80;;;;;;;;;;4973538;28;20064;-72
2023/10/15 11:05:55;;;;;;;15.75;6.97;;;;;;;;;;4973308;28;20082;-71
2023/10/15 11:08:22;;;;;;;13.23;6.70;;;;;;;;;;4973758;28;20035;-72
2023/10/15 11:10:48;;;;;;;17.10;7.50;;;;;;;;;;4973297;28;20033;-71
2023/10/15 11:13:18;;;;;;;10.27;5.22;;;;;;;;;;4973085;28;20441;-71
2023/10/15 11:15:44;;;;;;;11.02;5.28;;;;;;;;;;4973198;28;20438;-71
2023/10/15 11:18:11;;;;;;;13.82;6.03;;;;;;;;;;4973044;28;20023;-71
2023/10/15 11:20:37;;;;;;;9.90;4.85;;;;;;;;;;4972976;28;20039;-71
2023/10/15 11:23:05;;;;;;;7.22;4.53;;;;;;;;;;4972861;28;20118;-71
2023/10/15 11:25:35;;;;;;;7.70;4.55;;;;;;;;;;4972367;28;20101;-71
2023/10/15 11:28:05;;;;;;;13.65;4.97;;;;;;;;;;4973031;28;20652;-71
2023/10/15 11:30:34;;;;;;;9.02;4.60;;;;;;;;;;4972713;28;20062;-72
2023/10/15 11:33:00;;;;;;;8.20;4.50;;;;;;;;;;4972378;28;20027;-72
2023/10/15 11:35:33;;;;;;;9.63;4.50;;;;;;;;;;4972674;28;20049;-71
2023/10/15 11:38:06;;;;;;;9.60;4.50;;;;;;;;;;4965911;28;20035;-72
2023/10/15 11:40:36;;;;;;;10.40;5.40;;;;;;;;;;4972781;28;20284;-71
2023/10/15 11:43:02;;;;;;;9.88;5.00;;;;;;;;;;4972893;28;20050;-70
2023/10/15 11:45:31;;;;;;;8.77;5.25;;;;;;;;;;4987654;28;20403;-70
2023/10/15 11:47:57;;;;;;;8.43;5.07;;;;;;;;;;4972601;28;20480;-72
2023/10/15 11:50:23;;;;;;;9.13;5.32;;;;;;;;;;4972414;28;20030;-70
2023/10/15 11:52:50;;;;;;;13.13;5.93;;;;;;;;;;4972783;28;20035;-72
2023/10/15 11:55:22;;;;;;;9.77;5.30;;;;;;;;;;4972421;28;20026;-72
2023/10/15 11:57:50;;;;;;;10.10;4.97;;;;;;;;;;4972364;28;20046;-72
2023/10/15 12:00:56;;;;;;;9.40;5.18;;;;;;;;;;4972759;28;20079;-72
2023/10/15 12:03:18;;;;;;;10.52;5.15;;;;;;;;;;4971257;28;20045;-71
2023/10/15 12:05:45;;;;;;;16.83;6.45;;;;;;;;;;4971894;28;20039;-71
2023/10/15 12:08:13;;;;;;;9.02;5.22;;;;;;;;;;4972386;28;20508;-70
2023/10/15 12:10:45;;;;;;;10.60;5.85;;;;;;;;;;4972637;28;20117;-71
2023/10/15 12:13:14;;;;;;;14.32;6.65;;;;;;;;;;4972507;28;20039;-71
2023/10/15 12:15:41;;;;;;;10.27;5.60;;;;;;;;;;4972488;28;20130;-71
2023/10/15 12:18:07;;;;;;;11.63;5.05;;;;;;;;;;4972411;28;20039;-72
2023/10/15 12:20:33;;;;;;;9.40;4.90;;;;;;;;;;4972262;28;20034;-71
2023/10/15 12:22:59;;;;;;;9.38;4.60;;;;;;;;;;4972466;28;20027;-71
2023/10/15 12:25:25;;;;;;;7.45;4.72;;;;;;;;;;4972394;28;20031;-71
2023/10/15 12:27:51;;;;;;;8.98;4.32;;;;;;;;;;4972345;28;20045;-72
2023/10/15 12:30:23;;;;;;;10.18;5.32;;;;;;;;;;4972590;28;20105;-72
2023/10/15 12:32:51;;;;;;;9.17;4.60;;;;;;;;;;4972325;28;20077;-71
2023/10/15 12:35:19;;;;;;;7.63;4.30;;;;;;;;;;4972057;28;20038;-71
2023/10/15 12:37:46;;;;;;;9.65;4.20;;;;;;;;;;4972150;28;20503;-71
2023/10/15 12:40:12;;;;;;;11.57;4.88;;;;;;;;;;4971608;28;20042;-71
2023/10/15 12:42:42;;;;;;;10.20;4.50;;;;;;;;;;4972062;28;20038;-71
2023/10/15 12:45:10;;;;;;;8.98;4.20;;;;;;;;;;4975436;28;20038;-70
2023/10/15 12:47:39;;;;;;;10.07;4.47;;;;;;;;;;4976118;28;20449;-70
2023/10/15 12:50:08;;;;;;;8.25;4.80;;;;;;;;;;4976235;28;20392;-71
2023/10/15 12:52:35;;;;;;;7.60;4.50;;;;;;;;;;4976087;28;20031;-72
2023/10/15 12:55:01;;;;;;;13.27;4.55;;;;;;;;;;4975904;28;20035;-71
2023/10/15 12:57:27;;;;;;;10.60;4.40;;;;;;;;;;4990778;28;20057;-72
2023/10/15 12:59:52;;;;;;;8.98;4.35;;;;;;;;;;4975293;28;20031;-72
2023/10/15 13:02:20;;;;;;;8.52;4.20;;;;;;;;;;4975660;28;20038;-71
2023/10/15 13:04:48;;;;;;;7.43;4.47;;;;;;;;;;4975689;28;20026;-71
2023/10/15 13:07:14;;;;;;;9.75;4.18;;;;;;;;;;4975417;28;20497;-71
2023/10/15 13:09:40;;;;;;;8.57;4.20;;;;;;;;;;4976091;28;20030;-71
2023/10/15 13:12:10;;;;;;;7.82;4.57;;;;;;;;;;4975787;28;20043;-71
2023/10/15 13:14:36;;;;;;;9.13;4.38;;;;;;;;;;4975521;28;20129;-72
2023/10/15 13:17:01;;;;;;;8.40;5.30;;;;;;;;;;4975705;28;20405;-71
2023/10/15 13:19:27;;;;;;;8.55;4.38;;;;;;;;;;4975416;28;20047;-71
2023/10/15 13:21:53;;;;;;;10.07;4.80;;;;;;;;;;4976039;28;20082;-71
2023/10/15 13:24:19;;;;;;;11.40;4.65;;;;;;;;;;4975659;28;20051;-71
2023/10/15 13:26:48;;;;;;;9.10;5.47;;;;;;;;;;4975403;28;20034;-71
2023/10/15 13:29:14;;;;;;;10.60;5.25;;;;;;;;;;4975271;28;20125;-72
2023/10/15 13:31:40;;;;;;;23.25;11.90;;;;;;;;;;4975425;28;20094;-72
2023/10/15 13:34:06;;;;;;;7.22;4.35;;;;;;;;;;4975222;28;20042;-72
2023/10/15 13:36:32;;;;;;;7.15;4.20;;;;;;;;;;4975098;28;20023;-71
2023/10/15 13:38:59;;;;;;;12.27;4.10;;;;;;;;;;4974866;28;20046;-71
2023/10/15 13:41:26;;;;;;;9.85;6.15;;;;;;;;;;4974946;28;20023;-72
2023/10/15 13:43:52;;;;;;;15.38;7.78;;;;;;;;;;4974340;28;20038;-71
2023/10/15 13:46:18;;;;;;;11.05;6.30;;;;;;;;;;4975403;28;20015;-71
2023/10/15 13:48:44;;;;;;;7.20;4.47;;;;;;;;;;4970448;28;20039;-71
2023/10/15 13:51:10;;;;;;;14.65;5.25;;;;;;;;;;4974628;28;20031;-72
2023/10/15 13:53:36;;;;;;;13.18;5.20;;;;;;;;;;4974967;28;20412;-72
2023/10/15 13:56:03;;;;;;;6.82;4.90;;;;;;;;;;4988717;28;20076;-70
2023/10/15 13:58:29;;;;;;;10.65;4.97;;;;;;;;;;4974745;28;20101;-71
2023/10/15 14:00:55;;;;;;;10.90;5.22;;;;;;;;;;4972939;28;20118;-72
2023/10/15 14:03:21;;;;;;;8.90;4.90;;;;;;;;;;4963557;28;20031;-70
2023/10/15 14:05:46;;;;;;;16.77;5.25;;;;;;;;;;4973731;28;20118;-70
2023/10/15 14:08:13;;;;;;;8.85;4.95;;;;;;;;;;4974132;28;20413;-71
2023/10/15 14:10:39;;;;;;;10.63;4.90;;;;;;;;;;4974626;28;20034;-70
2023/10/15 14:13:08;;;;;;;10.35;5.13;;;;;;;;;;4973703;28;20039;-70
2023/10/15 14:15:34;;;;;;;9.30;5.20;;;;;;;;;;4972574;28;20026;-70
2023/10/15 14:18:00;;;;;;;12.65;5.25;;;;;;;;;;4972529;28;20135;-71
2023/10/15 14:20:26;;;;;;;7.80;4.10;;;;;;;;;;4974818;28;20110;-72
2023/10/15 14:22:54;;;;;;;8.32;4.53;;;;;;;;;;4974502;28;20043;-71
2023/10/15 14:25:20;;;;;;;9.18;4.55;;;;;;;;;;4974247;28;20523;-71
2023/10/15 14:27:46;;;;;;;10.07;4.93;;;;;;;;;;4972110;28;20046;-71
2023/10/15 14:30:11;;;;;;;12.63;5.05;;;;;;;;;;4974177;28;20115;-71
2023/10/15 14:32:38;;;;;;;8.52;4.80;;;;;;;;;;4973926;28;20114;-71
2023/10/15 14:35:04;;;;;;;9.98;4.85;;;;;;;;;;4973925;28;20030;-71
2023/10/15 14:37:31;;;;;;;11.00;4.63;;;;;;;;;;4973912;28;20080;-71
2023/10/15 14:39:57;;;;;;;9.55;4.40;;;;;;;;;;4973641;28;20034;-71
2023/10/15 14:42:23;;;;;;;11.05;4.90;;;;;;;;;;4974313;28;20517;-72
2023/10/15 14:44:51;;;;;;;10.38;4.47;;;;;;;;;;4972180;28;20030;-71
2023/10/15 14:47:17;;;;;;;8.10;4.10;;;;;;;;;;4986501;28;20038;-71
2023/10/15 14:49:46;;;;;;;10.85;5.03;;;;;;;;;;4972412;28;20110;-72